sensor_id;sensor_type;location;lat;lon;timestamp;P1;durP1;ratioP1;P2;durP2;ratioP2
15202;SDS011;7702;51.046;5.184;2023-02-22T00:00:09;192.10;;;35.90;;
15202;SDS011;7702;51.046;5.184;2023-02-22T00:02:43;88.70;;;26.43;;
15202;SDS011;7702;51.046;5.184;2023-02-22T00:05:10;91.70;;;25.73;;
15202;SDS011;7702;51.046;5.184;2023-02-22T00:07:39;58.17;;;24.33;;
15202;SDS011;7702;51.046;5.184;2023-02-22T00:10:06;74.00;;;23.83;;
15202;SDS011;7702;51.046;5.184;2023-02-22T00:12:37;62.83;;;23.50;;
15202;SDS011;7702;51.046;5.184;2023-02-22T00:15:07;54.70;;;24.30;;
15202;SDS011;7702;51.046;5.184;2023-02-22T00:17:33;80.47;;;26.87;;
15202;SDS011;7702;51.046;5.184;2023-02-22T00:19:59;102.53;;;24.77;;
15202;SDS011;7702;51.046;5.184;2023-02-22T00:22:25;72.23;;;22.90;;
15202;SDS011;7702;51.046;5.184;2023-02-22T00:24:51;85.13;;;23.93;;
15202;SDS011;7702;51.046;5.184;2023-02-22T00:27:16;155.50;;;29.40;;
15202;SDS011;7702;51.046;5.184;2023-02-22T00:29:46;69.90;;;23.30;;
15202;SDS011;7702;51.046;5.184;2023-02-22T00:32:11;76.17;;;23.83;;
15202;SDS011;7702;51.046;5.184;2023-02-22T00:34:37;76.07;;;22.47;;
15202;SDS011;7702;51.046;5.184;2023-02-22T00:37:03;88.70;;;24.50;;
15202;SDS011;7702;51.046;5.184;2023-02-22T00:39:29;99.27;;;23.83;;
15202;SDS011;7702;51.046;5.184;2023-02-22T00:41:55;119.57;;;25.73;;
15202;SDS011;7702;51.046;5.184;2023-02-22T00:44:21;103.00;;;26.07;;
15202;SDS011;7702;51.046;5.184;2023-02-22T00:46:47;162.40;;;30.47;;
15202;SDS011;7702;51.046;5.184;2023-02-22T00:49:14;58.50;;;22.23;;
15202;SDS011;7702;51.046;5.184;2023-02-22T00:51:40;54.33;;;22.37;;
15202;SDS011;7702;51.046;5.184;2023-02-22T00:54:07;85.17;;;25.13;;
15202;SDS011;7702;51.046;5.184;2023-02-22T00:56:33;113.80;;;25.70;;
15202;SDS011;7702;51.046;5.184;2023-02-22T00:58:59;68.07;;;22.07;;
15202;SDS011;7702;51.046;5.184;2023-02-22T01:01:29;60.93;;;22.47;;
15202;SDS011;7702;51.046;5.184;2023-02-22T01:03:55;74.80;;;21.77;;
15202;SDS011;7702;51.046;5.184;2023-02-22T01:06:20;106.20;;;24.53;;
15202;SDS011;7702;51.046;5.184;2023-02-22T01:08:47;116.30;;;25.60;;
15202;SDS011;7702;51.046;5.184;2023-02-22T01:11:14;85.63;;;22.27;;
15202;SDS011;7702;51.046;5.184;2023-02-22T01:13:40;92.00;;;23.20;;
15202;SDS011;7702;51.046;5.184;2023-02-22T01:16:09;68.03;;;22.03;;
15202;SDS011;7702;51.046;5.184;2023-02-22T01:18:35;51.93;;;20.10;;
15202;SDS011;7702;51.046;5.184;2023-02-22T01:21:02;89.07;;;24.83;;
15202;SDS011;7702;51.046;5.184;2023-02-22T01:23:28;109.83;;;26.93;;
15202;SDS011;7702;51.046;5.184;2023-02-22T01:25:54;141.10;;;29.80;;
15202;SDS011;7702;51.046;5.184;2023-02-22T01:28:20;105.37;;;26.13;;
15202;SDS011;7702;51.046;5.184;2023-02-22T01:30:46;87.80;;;25.10;;
15202;SDS011;7702;51.046;5.184;2023-02-22T01:33:13;138.90;;;28.83;;
15202;SDS011;7702;51.046;5.184;2023-02-22T01:35:40;178.73;;;32.30;;
15202;SDS011;7702;51.046;5.184;2023-02-22T01:38:07;84.07;;;24.37;;
15202;SDS011;7702;51.046;5.184;2023-02-22T01:40:37;100.57;;;23.73;;
15202;SDS011;7702;51.046;5.184;2023-02-22T01:45:48;146.80;;;27.60;;
15202;SDS011;7702;51.046;5.184;2023-02-22T01:51:06;153.97;;;28.30;;
15202;SDS011;7702;51.046;5.184;2023-02-22T01:53:52;154.43;;;27.93;;
15202;SDS011;7702;51.046;5.184;2023-02-22T01:56:21;98.40;;;24.50;;
15202;SDS011;7702;51.046;5.184;2023-02-22T01:58:53;87.67;;;22.97;;
15202;SDS011;7702;51.046;5.184;2023-02-22T02:01:25;93.33;;;23.43;;
15202;SDS011;7702;51.046;5.184;2023-02-22T02:03:54;89.43;;;23.27;;
15202;SDS011;7702;51.046;5.184;2023-02-22T02:06:25;123.40;;;26.33;;
15202;SDS011;7702;51.046;5.184;2023-02-22T02:11:45;136.53;;;26.90;;
15202;SDS011;7702;51.046;5.184;2023-02-22T02:14:12;150.63;;;28.27;;
15202;SDS011;7702;51.046;5.184;2023-02-22T02:16:42;144.43;;;28.17;;
15202;SDS011;7702;51.046;5.184;2023-02-22T02:27:16;121.13;;;26.50;;
15202;SDS011;7702;51.046;5.184;2023-02-22T02:32:44;141.37;;;26.37;;
15202;SDS011;7702;51.046;5.184;2023-02-22T02:35:28;115.33;;;25.63;;
15202;SDS011;7702;51.046;5.184;2023-02-22T02:41:57;80.37;;;22.47;;
15202;SDS011;7702;51.046;5.184;2023-02-22T02:46:37;103.87;;;22.70;;
15202;SDS011;7702;51.046;5.184;2023-02-22T02:49:10;104.93;;;23.57;;
15202;SDS011;7702;51.046;5.184;2023-02-22T02:51:41;128.77;;;26.63;;
15202;SDS011;7702;51.046;5.184;2023-02-22T02:54:12;78.77;;;21.23;;
15202;SDS011;7702;51.046;5.184;2023-02-22T02:56:40;109.57;;;23.07;;
15202;SDS011;7702;51.046;5.184;2023-02-22T02:59:26;78.20;;;22.87;;
15202;SDS011;7702;51.046;5.184;2023-02-22T03:04:36;125.90;;;25.57;;
15202;SDS011;7702;51.046;5.184;2023-02-22T03:08:08;130.13;;;27.53;;
15202;SDS011;7702;51.046;5.184;2023-02-22T03:16:13;82.20;;;21.30;;
15202;SDS011;7702;51.046;5.184;2023-02-22T03:22:16;132.83;;;23.53;;
15202;SDS011;7702;51.046;5.184;2023-02-22T03:24:36;82.10;;;21.43;;
15202;SDS011;7702;51.046;5.184;2023-02-22T03:27:28;72.03;;;18.93;;
15202;SDS011;7702;51.046;5.184;2023-02-22T03:30:00;58.57;;;17.77;;
15202;SDS011;7702;51.046;5.184;2023-02-22T03:32:34;93.90;;;21.97;;
15202;SDS011;7702;51.046;5.184;2023-02-22T03:35:07;98.70;;;22.97;;
15202;SDS011;7702;51.046;5.184;2023-02-22T03:37:38;62.07;;;18.40;;
15202;SDS011;7702;51.046;5.184;2023-02-22T03:40:08;80.23;;;20.13;;
15202;SDS011;7702;51.046;5.184;2023-02-22T03:42:39;106.13;;;21.10;;
15202;SDS011;7702;51.046;5.184;2023-02-22T03:45:12;109.53;;;22.63;;
15202;SDS011;7702;51.046;5.184;2023-02-22T03:47:42;118.00;;;23.97;;
15202;SDS011;7702;51.046;5.184;2023-02-22T03:50:20;110.70;;;21.77;;
15202;SDS011;7702;51.046;5.184;2023-02-22T03:52:50;95.97;;;20.77;;
15202;SDS011;7702;51.046;5.184;2023-02-22T03:55:17;71.60;;;18.33;;
15202;SDS011;7702;51.046;5.184;2023-02-22T03:57:50;96.53;;;23.70;;
15202;SDS011;7702;51.046;5.184;2023-02-22T04:00:22;84.80;;;21.07;;
15202;SDS011;7702;51.046;5.184;2023-02-22T04:02:49;82.20;;;19.60;;
15202;SDS011;7702;51.046;5.184;2023-02-22T04:05:15;70.77;;;21.23;;
15202;SDS011;7702;51.046;5.184;2023-02-22T04:07:41;80.10;;;18.30;;
15202;SDS011;7702;51.046;5.184;2023-02-22T04:10:08;63.53;;;19.37;;
15202;SDS011;7702;51.046;5.184;2023-02-22T04:12:36;72.47;;;19.67;;
15202;SDS011;7702;51.046;5.184;2023-02-22T04:15:03;74.67;;;18.27;;
15202;SDS011;7702;51.046;5.184;2023-02-22T04:17:30;72.27;;;20.23;;
15202;SDS011;7702;51.046;5.184;2023-02-22T04:19:56;78.83;;;20.03;;
15202;SDS011;7702;51.046;5.184;2023-02-22T04:22:22;81.50;;;19.03;;
15202;SDS011;7702;51.046;5.184;2023-02-22T04:24:48;44.00;;;17.80;;
15202;SDS011;7702;51.046;5.184;2023-02-22T04:27:14;80.23;;;18.10;;
15202;SDS011;7702;51.046;5.184;2023-02-22T04:29:40;43.37;;;15.43;;
15202;SDS011;7702;51.046;5.184;2023-02-22T04:32:06;76.13;;;20.73;;
15202;SDS011;7702;51.046;5.184;2023-02-22T04:34:32;71.90;;;19.87;;
15202;SDS011;7702;51.046;5.184;2023-02-22T04:36:58;64.90;;;16.87;;
15202;SDS011;7702;51.046;5.184;2023-02-22T04:39:24;35.17;;;15.20;;
15202;SDS011;7702;51.046;5.184;2023-02-22T04:41:49;46.93;;;16.67;;
15202;SDS011;7702;51.046;5.184;2023-02-22T04:44:15;45.47;;;17.07;;
15202;SDS011;7702;51.046;5.184;2023-02-22T04:46:41;53.07;;;17.53;;
15202;SDS011;7702;51.046;5.184;2023-02-22T04:49:06;26.17;;;13.43;;
15202;SDS011;7702;51.046;5.184;2023-02-22T04:51:32;26.63;;;13.33;;
15202;SDS011;7702;51.046;5.184;2023-02-22T04:53:59;42.87;;;15.57;;
15202;SDS011;7702;51.046;5.184;2023-02-22T04:56:25;42.00;;;14.90;;
15202;SDS011;7702;51.046;5.184;2023-02-22T04:58:51;36.73;;;14.70;;
15202;SDS011;7702;51.046;5.184;2023-02-22T05:01:17;30.17;;;14.07;;
15202;SDS011;7702;51.046;5.184;2023-02-22T05:03:43;41.57;;;15.50;;
15202;SDS011;7702;51.046;5.184;2023-02-22T05:06:09;58.77;;;16.57;;
15202;SDS011;7702;51.046;5.184;2023-02-22T05:08:36;53.90;;;15.83;;
15202;SDS011;7702;51.046;5.184;2023-02-22T05:11:02;38.93;;;16.07;;
15202;SDS011;7702;51.046;5.184;2023-02-22T05:13:29;49.60;;;17.17;;
15202;SDS011;7702;51.046;5.184;2023-02-22T05:15:55;36.50;;;16.63;;
15202;SDS011;7702;51.046;5.184;2023-02-22T05:18:20;26.27;;;13.83;;
15202;SDS011;7702;51.046;5.184;2023-02-22T05:20:46;31.10;;;15.33;;
15202;SDS011;7702;51.046;5.184;2023-02-22T05:23:12;32.37;;;15.80;;
15202;SDS011;7702;51.046;5.184;2023-02-22T05:25:38;28.47;;;15.80;;
15202;SDS011;7702;51.046;5.184;2023-02-22T05:28:08;26.97;;;15.17;;
15202;SDS011;7702;51.046;5.184;2023-02-22T05:30:36;31.47;;;14.27;;
15202;SDS011;7702;51.046;5.184;2023-02-22T05:33:07;32.67;;;15.20;;
15202;SDS011;7702;51.046;5.184;2023-02-22T05:35:33;27.77;;;15.27;;
15202;SDS011;7702;51.046;5.184;2023-02-22T05:38:01;30.17;;;15.03;;
15202;SDS011;7702;51.046;5.184;2023-02-22T05:40:28;34.20;;;16.10;;
15202;SDS011;7702;51.046;5.184;2023-02-22T05:42:55;33.17;;;15.17;;
15202;SDS011;7702;51.046;5.184;2023-02-22T05:45:22;24.87;;;14.40;;
15202;SDS011;7702;51.046;5.184;2023-02-22T05:47:49;29.47;;;15.73;;
15202;SDS011;7702;51.046;5.184;2023-02-22T05:50:17;22.00;;;14.47;;
15202;SDS011;7702;51.046;5.184;2023-02-22T05:52:44;24.90;;;14.20;;
15202;SDS011;7702;51.046;5.184;2023-02-22T05:55:12;24.90;;;15.47;;
15202;SDS011;7702;51.046;5.184;2023-02-22T05:57:39;24.63;;;15.93;;
15202;SDS011;7702;51.046;5.184;2023-02-22T06:00:05;24.53;;;16.40;;
15202;SDS011;7702;51.046;5.184;2023-02-22T06:02:32;26.40;;;15.53;;
15202;SDS011;7702;51.046;5.184;2023-02-22T06:04:58;26.50;;;15.50;;
15202;SDS011;7702;51.046;5.184;2023-02-22T06:07:24;23.47;;;15.07;;
15202;SDS011;7702;51.046;5.184;2023-02-22T06:09:49;24.40;;;15.93;;
15202;SDS011;7702;51.046;5.184;2023-02-22T06:12:17;23.33;;;15.13;;
15202;SDS011;7702;51.046;5.184;2023-02-22T06:14:43;21.53;;;14.43;;
15202;SDS011;7702;51.046;5.184;2023-02-22T06:17:13;26.13;;;15.97;;
15202;SDS011;7702;51.046;5.184;2023-02-22T06:19:40;23.93;;;15.87;;
15202;SDS011;7702;51.046;5.184;2023-02-22T06:22:06;25.97;;;16.63;;
15202;SDS011;7702;51.046;5.184;2023-02-22T06:24:32;27.20;;;16.67;;
15202;SDS011;7702;51.046;5.184;2023-02-22T06:26:59;24.00;;;16.33;;
15202;SDS011;7702;51.046;5.184;2023-02-22T06:29:27;24.20;;;15.93;;
15202;SDS011;7702;51.046;5.184;2023-02-22T06:31:53;25.00;;;16.50;;
15202;SDS011;7702;51.046;5.184;2023-02-22T06:34:19;28.33;;;17.73;;
15202;SDS011;7702;51.046;5.184;2023-02-22T06:36:48;29.93;;;17.97;;
15202;SDS011;7702;51.046;5.184;2023-02-22T06:39:14;29.77;;;16.77;;
15202;SDS011;7702;51.046;5.184;2023-02-22T06:41:43;22.93;;;16.43;;
15202;SDS011;7702;51.046;5.184;2023-02-22T06:44:10;25.17;;;15.47;;
15202;SDS011;7702;51.046;5.184;2023-02-22T06:46:37;22.63;;;15.13;;
15202;SDS011;7702;51.046;5.184;2023-02-22T06:49:03;22.90;;;14.47;;
15202;SDS011;7702;51.046;5.184;2023-02-22T06:51:30;25.63;;;15.77;;
15202;SDS011;7702;51.046;5.184;2023-02-22T06:54:01;24.30;;;15.37;;
15202;SDS011;7702;51.046;5.184;2023-02-22T06:56:28;23.93;;;16.60;;
15202;SDS011;7702;51.046;5.184;2023-02-22T06:58:54;26.67;;;15.73;;
15202;SDS011;7702;51.046;5.184;2023-02-22T07:01:19;25.60;;;16.33;;
15202;SDS011;7702;51.046;5.184;2023-02-22T07:03:47;23.33;;;15.77;;
15202;SDS011;7702;51.046;5.184;2023-02-22T07:06:13;23.43;;;14.93;;
15202;SDS011;7702;51.046;5.184;2023-02-22T07:08:39;24.67;;;16.30;;
15202;SDS011;7702;51.046;5.184;2023-02-22T07:11:05;29.23;;;16.90;;
15202;SDS011;7702;51.046;5.184;2023-02-22T07:13:31;25.53;;;15.93;;
15202;SDS011;7702;51.046;5.184;2023-02-22T07:15:57;25.93;;;17.17;;
15202;SDS011;7702;51.046;5.184;2023-02-22T07:18:22;27.13;;;16.10;;
15202;SDS011;7702;51.046;5.184;2023-02-22T07:20:48;25.43;;;16.73;;
15202;SDS011;7702;51.046;5.184;2023-02-22T07:23:15;27.67;;;17.70;;
15202;SDS011;7702;51.046;5.184;2023-02-22T07:25:41;33.00;;;16.60;;
15202;SDS011;7702;51.046;5.184;2023-02-22T07:28:08;25.60;;;16.40;;
15202;SDS011;7702;51.046;5.184;2023-02-22T07:30:37;25.90;;;17.40;;
15202;SDS011;7702;51.046;5.184;2023-02-22T07:33:04;24.97;;;16.70;;
15202;SDS011;7702;51.046;5.184;2023-02-22T07:35:36;24.40;;;16.63;;
15202;SDS011;7702;51.046;5.184;2023-02-22T07:38:10;26.17;;;16.67;;
15202;SDS011;7702;51.046;5.184;2023-02-22T07:40:37;27.43;;;16.03;;
15202;SDS011;7702;51.046;5.184;2023-02-22T07:43:04;25.90;;;16.33;;
15202;SDS011;7702;51.046;5.184;2023-02-22T07:45:38;25.30;;;17.07;;
15202;SDS011;7702;51.046;5.184;2023-02-22T07:48:04;27.97;;;17.30;;
15202;SDS011;7702;51.046;5.184;2023-02-22T07:50:32;24.33;;;16.30;;
15202;SDS011;7702;51.046;5.184;2023-02-22T07:53:00;24.43;;;16.27;;
15202;SDS011;7702;51.046;5.184;2023-02-22T07:55:28;23.33;;;15.60;;
15202;SDS011;7702;51.046;5.184;2023-02-22T07:57:56;26.83;;;18.30;;
15202;SDS011;7702;51.046;5.184;2023-02-22T08:00:27;24.67;;;17.10;;
15202;SDS011;7702;51.046;5.184;2023-02-22T08:02:56;27.57;;;18.23;;
15202;SDS011;7702;51.046;5.184;2023-02-22T08:05:24;29.13;;;17.80;;
15202;SDS011;7702;51.046;5.184;2023-02-22T08:07:50;29.07;;;17.00;;
15202;SDS011;7702;51.046;5.184;2023-02-22T08:10:17;59.93;;;21.53;;
15202;SDS011;7702;51.046;5.184;2023-02-22T08:12:44;71.27;;;22.27;;
15202;SDS011;7702;51.046;5.184;2023-02-22T08:15:15;40.67;;;19.07;;
15202;SDS011;7702;51.046;5.184;2023-02-22T08:17:50;30.77;;;16.53;;
15202;SDS011;7702;51.046;5.184;2023-02-22T08:20:17;24.93;;;15.70;;
15202;SDS011;7702;51.046;5.184;2023-02-22T08:22:43;24.83;;;16.00;;
15202;SDS011;7702;51.046;5.184;2023-02-22T08:25:11;24.73;;;16.20;;
15202;SDS011;7702;51.046;5.184;2023-02-22T08:27:39;24.50;;;16.77;;
15202;SDS011;7702;51.046;5.184;2023-02-22T08:30:06;22.70;;;16.07;;
15202;SDS011;7702;51.046;5.184;2023-02-22T08:32:33;22.23;;;15.20;;
15202;SDS011;7702;51.046;5.184;2023-02-22T08:34:59;22.27;;;15.10;;
15202;SDS011;7702;51.046;5.184;2023-02-22T08:37:26;21.90;;;15.07;;
15202;SDS011;7702;51.046;5.184;2023-02-22T08:39:52;20.50;;;14.03;;
15202;SDS011;7702;51.046;5.184;2023-02-22T08:42:20;23.03;;;14.90;;
15202;SDS011;7702;51.046;5.184;2023-02-22T08:44:46;22.80;;;14.57;;
15202;SDS011;7702;51.046;5.184;2023-02-22T08:47:11;19.47;;;14.57;;
15202;SDS011;7702;51.046;5.184;2023-02-22T08:49:37;20.70;;;14.37;;
15202;SDS011;7702;51.046;5.184;2023-02-22T08:52:03;18.90;;;13.33;;
15202;SDS011;7702;51.046;5.184;2023-02-22T08:54:29;20.57;;;13.90;;
15202;SDS011;7702;51.046;5.184;2023-02-22T08:56:54;18.57;;;13.03;;
15202;SDS011;7702;51.046;5.184;2023-02-22T08:59:20;18.63;;;12.93;;
15202;SDS011;7702;51.046;5.184;2023-02-22T09:01:46;16.60;;;12.00;;
15202;SDS011;7702;51.046;5.184;2023-02-22T09:04:11;15.77;;;11.93;;
15202;SDS011;7702;51.046;5.184;2023-02-22T09:06:40;19.17;;;12.80;;
15202;SDS011;7702;51.046;5.184;2023-02-22T09:09:07;16.43;;;12.20;;
15202;SDS011;7702;51.046;5.184;2023-02-22T09:11:34;17.27;;;11.60;;
15202;SDS011;7702;51.046;5.184;2023-02-22T09:14:00;17.07;;;11.77;;
15202;SDS011;7702;51.046;5.184;2023-02-22T09:16:25;17.07;;;12.57;;
15202;SDS011;7702;51.046;5.184;2023-02-22T09:18:51;18.67;;;13.67;;
15202;SDS011;7702;51.046;5.184;2023-02-22T09:21:17;23.17;;;16.50;;
15202;SDS011;7702;51.046;5.184;2023-02-22T09:23:45;18.67;;;13.97;;
15202;SDS011;7702;51.046;5.184;2023-02-22T09:26:11;24.03;;;15.43;;
15202;SDS011;7702;51.046;5.184;2023-02-22T09:28:39;20.83;;;14.83;;
15202;SDS011;7702;51.046;5.184;2023-02-22T09:31:06;23.90;;;14.03;;
15202;SDS011;7702;51.046;5.184;2023-02-22T09:33:32;18.10;;;12.37;;
15202;SDS011;7702;51.046;5.184;2023-02-22T09:35:58;15.07;;;10.40;;
15202;SDS011;7702;51.046;5.184;2023-02-22T09:38:25;15.67;;;10.77;;
15202;SDS011;7702;51.046;5.184;2023-02-22T09:46:25;13.17;;;10.07;;
15202;SDS011;7702;51.046;5.184;2023-02-22T09:51:42;13.47;;;9.03;;
15202;SDS011;7702;51.046;5.184;2023-02-22T09:54:33;13.03;;;10.00;;
15202;SDS011;7702;51.046;5.184;2023-02-22T09:57:09;10.67;;;9.10;;
15202;SDS011;7702;51.046;5.184;2023-02-22T09:59:50;11.60;;;9.33;;
15202;SDS011;7702;51.046;5.184;2023-02-22T10:02:37;17.97;;;14.57;;
15202;SDS011;7702;51.046;5.184;2023-02-22T10:05:18;16.43;;;14.93;;
15202;SDS011;7702;51.046;5.184;2023-02-22T10:08:02;16.73;;;15.13;;
15202;SDS011;7702;51.046;5.184;2023-02-22T10:10:33;13.00;;;10.17;;
15202;SDS011;7702;51.046;5.184;2023-02-22T10:15:54;24.90;;;22.70;;
15202;SDS011;7702;51.046;5.184;2023-02-22T10:21:33;11.73;;;9.53;;
15202;SDS011;7702;51.046;5.184;2023-02-22T10:27:15;13.33;;;9.17;;
15202;SDS011;7702;51.046;5.184;2023-02-22T10:30:14;14.03;;;10.50;;
15202;SDS011;7702;51.046;5.184;2023-02-22T10:32:44;13.10;;;9.10;;
15202;SDS011;7702;51.046;5.184;2023-02-22T10:35:19;13.17;;;11.47;;
15202;SDS011;7702;51.046;5.184;2023-02-22T10:37:47;12.67;;;11.37;;
15202;SDS011;7702;51.046;5.184;2023-02-22T10:40:22;12.87;;;11.57;;
15202;SDS011;7702;51.046;5.184;2023-02-22T10:43:05;15.80;;;14.40;;
15202;SDS011;7702;51.046;5.184;2023-02-22T10:58:04;11.70;;;9.37;;
15202;SDS011;7702;51.046;5.184;2023-02-22T11:00:35;12.23;;;10.30;;
15202;SDS011;7702;51.046;5.184;2023-02-22T11:05:39;12.77;;;10.90;;
15202;SDS011;7702;51.046;5.184;2023-02-22T11:10:49;14.10;;;10.10;;
15202;SDS011;7702;51.046;5.184;2023-02-22T11:13:24;13.80;;;10.87;;
15202;SDS011;7702;51.046;5.184;2023-02-22T11:15:57;13.67;;;10.83;;
15202;SDS011;7702;51.046;5.184;2023-02-22T11:18:29;14.53;;;11.07;;
15202;SDS011;7702;51.046;5.184;2023-02-22T11:20:58;12.73;;;11.30;;
15202;SDS011;7702;51.046;5.184;2023-02-22T11:23:35;11.97;;;10.53;;
15202;SDS011;7702;51.046;5.184;2023-02-22T11:26:13;12.97;;;10.53;;
15202;SDS011;7702;51.046;5.184;2023-02-22T11:28:43;14.50;;;11.23;;
15202;SDS011;7702;51.046;5.184;2023-02-22T11:31:15;12.00;;;10.77;;
15202;SDS011;7702;51.046;5.184;2023-02-22T11:38:55;15.27;;;11.30;;
15202;SDS011;7702;51.046;5.184;2023-02-22T11:41:28;15.33;;;12.00;;
15202;SDS011;7702;51.046;5.184;2023-02-22T11:44:11;14.80;;;11.30;;
15202;SDS011;7702;51.046;5.184;2023-02-22T11:46:52;15.27;;;12.90;;
15202;SDS011;7702;51.046;5.184;2023-02-22T11:49:22;21.23;;;16.77;;
15202;SDS011;7702;51.046;5.184;2023-02-22T11:57:32;30.17;;;27.17;;
15202;SDS011;7702;51.046;5.184;2023-02-22T12:00:20;50.03;;;45.27;;
15202;SDS011;7702;51.046;5.184;2023-02-22T12:08:17;17.43;;;15.63;;
15202;SDS011;7702;51.046;5.184;2023-02-22T12:21:41;15.73;;;13.67;;
15202;SDS011;7702;51.046;5.184;2023-02-22T12:24:21;17.23;;;14.33;;
15202;SDS011;7702;51.046;5.184;2023-02-22T12:27:34;15.60;;;13.30;;
15202;SDS011;7702;51.046;5.184;2023-02-22T12:29:54;20.47;;;18.40;;
15202;SDS011;7702;51.046;5.184;2023-02-22T12:35:32;17.20;;;15.30;;
15202;SDS011;7702;51.046;5.184;2023-02-22T12:38:17;18.67;;;15.77;;
15202;SDS011;7702;51.046;5.184;2023-02-22T12:41:00;25.93;;;23.27;;
15202;SDS011;7702;51.046;5.184;2023-02-22T12:43:42;34.87;;;31.97;;
15202;SDS011;7702;51.046;5.184;2023-02-22T12:49:13;17.80;;;13.23;;
15202;SDS011;7702;51.046;5.184;2023-02-22T13:03:17;18.67;;;12.67;;
15202;SDS011;7702;51.046;5.184;2023-02-22T13:05:19;15.43;;;12.73;;
15202;SDS011;7702;51.046;5.184;2023-02-22T13:21:44;17.07;;;14.27;;
15202;SDS011;7702;51.046;5.184;2023-02-22T13:51:08;44.50;;;40.37;;
15202;SDS011;7702;51.046;5.184;2023-02-22T13:53:49;25.70;;;23.10;;
15202;SDS011;7702;51.046;5.184;2023-02-22T13:56:20;24.90;;;22.33;;
15202;SDS011;7702;51.046;5.184;2023-02-22T13:58:54;24.20;;;21.10;;
15202;SDS011;7702;51.046;5.184;2023-02-22T14:01:43;19.03;;;16.57;;
15202;SDS011;7702;51.046;5.184;2023-02-22T14:06:45;21.07;;;18.00;;
15202;SDS011;7702;51.046;5.184;2023-02-22T14:09:14;17.53;;;14.87;;
15202;SDS011;7702;51.046;5.184;2023-02-22T14:11:46;16.97;;;15.20;;
15202;SDS011;7702;51.046;5.184;2023-02-22T14:14:18;17.83;;;16.03;;
15202;SDS011;7702;51.046;5.184;2023-02-22T14:16:45;20.13;;;16.93;;
15202;SDS011;7702;51.046;5.184;2023-02-22T14:19:40;16.67;;;14.90;;
15202;SDS011;7702;51.046;5.184;2023-02-22T14:22:06;16.60;;;14.33;;
15202;SDS011;7702;51.046;5.184;2023-02-22T14:24:45;25.30;;;16.40;;
15202;SDS011;7702;51.046;5.184;2023-02-22T14:27:12;16.27;;;14.13;;
15202;SDS011;7702;51.046;5.184;2023-02-22T14:29:50;18.93;;;15.17;;
15202;SDS011;7702;51.046;5.184;2023-02-22T14:32:31;18.37;;;15.30;;
15202;SDS011;7702;51.046;5.184;2023-02-22T14:34:59;18.50;;;15.33;;
15202;SDS011;7702;51.046;5.184;2023-02-22T14:37:31;18.10;;;14.83;;
15202;SDS011;7702;51.046;5.184;2023-02-22T14:40:09;20.10;;;16.33;;
15202;SDS011;7702;51.046;5.184;2023-02-22T14:42:49;18.47;;;15.57;;
15202;SDS011;7702;51.046;5.184;2023-02-22T14:45:31;20.87;;;16.07;;
15202;SDS011;7702;51.046;5.184;2023-02-22T14:48:17;18.20;;;16.40;;
15202;SDS011;7702;51.046;5.184;2023-02-22T15:00:14;22.50;;;20.00;;
15202;SDS011;7702;51.046;5.184;2023-02-22T15:02:59;26.97;;;24.27;;
15202;SDS011;7702;51.046;5.184;2023-02-22T15:05:26;25.00;;;21.23;;
15202;SDS011;7702;51.046;5.184;2023-02-22T15:07:56;26.40;;;23.47;;
15202;SDS011;7702;51.046;5.184;2023-02-22T15:10:30;24.93;;;22.43;;
15202;SDS011;7702;51.046;5.184;2023-02-22T15:13:16;24.70;;;22.13;;
15202;SDS011;7702;51.046;5.184;2023-02-22T15:15:51;26.10;;;21.13;;
15202;SDS011;7702;51.046;5.184;2023-02-22T15:18:28;24.10;;;20.57;;
15202;SDS011;7702;51.046;5.184;2023-02-22T15:21:03;24.20;;;20.37;;
15202;SDS011;7702;51.046;5.184;2023-02-22T15:28:55;25.53;;;21.00;;
15202;SDS011;7702;51.046;5.184;2023-02-22T15:33:54;25.00;;;20.83;;
15202;SDS011;7702;51.046;5.184;2023-02-22T15:36:24;25.03;;;21.63;;
15202;SDS011;7702;51.046;5.184;2023-02-22T15:38:52;24.93;;;21.67;;
15202;SDS011;7702;51.046;5.184;2023-02-22T15:41:29;25.03;;;21.37;;
15202;SDS011;7702;51.046;5.184;2023-02-22T15:44:00;23.47;;;20.93;;
15202;SDS011;7702;51.046;5.184;2023-02-22T15:46:37;26.87;;;22.03;;
15202;SDS011;7702;51.046;5.184;2023-02-22T15:49:05;33.97;;;25.63;;
15202;SDS011;7702;51.046;5.184;2023-02-22T15:51:33;28.20;;;25.03;;
15202;SDS011;7702;51.046;5.184;2023-02-22T15:54:00;37.90;;;34.10;;
15202;SDS011;7702;51.046;5.184;2023-02-22T15:56:30;30.00;;;26.20;;
15202;SDS011;7702;51.046;5.184;2023-02-22T15:59:06;38.60;;;34.70;;
15202;SDS011;7702;51.046;5.184;2023-02-22T16:01:47;29.80;;;26.60;;
15202;SDS011;7702;51.046;5.184;2023-02-22T16:04:19;29.27;;;22.97;;
15202;SDS011;7702;51.046;5.184;2023-02-22T16:06:47;28.33;;;23.33;;
15202;SDS011;7702;51.046;5.184;2023-02-22T16:09:16;29.83;;;26.70;;
15202;SDS011;7702;51.046;5.184;2023-02-22T16:11:50;28.57;;;24.27;;
15202;SDS011;7702;51.046;5.184;2023-02-22T16:17:10;33.33;;;25.67;;
15202;SDS011;7702;51.046;5.184;2023-02-22T16:22:43;29.47;;;24.07;;
15202;SDS011;7702;51.046;5.184;2023-02-22T16:30:29;28.87;;;24.57;;
15202;SDS011;7702;51.046;5.184;2023-02-22T16:32:56;35.40;;;26.63;;
15202;SDS011;7702;51.046;5.184;2023-02-22T16:35:24;30.53;;;26.73;;
15202;SDS011;7702;51.046;5.184;2023-02-22T16:40:26;30.13;;;26.87;;
15202;SDS011;7702;51.046;5.184;2023-02-22T16:43:26;31.13;;;25.87;;
15202;SDS011;7702;51.046;5.184;2023-02-22T16:45:55;30.73;;;26.30;;
15202;SDS011;7702;51.046;5.184;2023-02-22T16:48:25;30.97;;;25.10;;
15202;SDS011;7702;51.046;5.184;2023-02-22T16:50:54;29.17;;;25.63;;
15202;SDS011;7702;51.046;5.184;2023-02-22T16:53:25;32.80;;;28.13;;
15202;SDS011;7702;51.046;5.184;2023-02-22T16:55:53;34.50;;;29.43;;
15202;SDS011;7702;51.046;5.184;2023-02-22T16:58:24;35.40;;;29.57;;
15202;SDS011;7702;51.046;5.184;2023-02-22T17:00:54;34.53;;;30.77;;
15202;SDS011;7702;51.046;5.184;2023-02-22T17:03:21;38.47;;;31.47;;
15202;SDS011;7702;51.046;5.184;2023-02-22T17:05:48;36.47;;;31.23;;
15202;SDS011;7702;51.046;5.184;2023-02-22T17:08:15;38.10;;;30.57;;
15202;SDS011;7702;51.046;5.184;2023-02-22T17:10:41;40.47;;;31.93;;
15202;SDS011;7702;51.046;5.184;2023-02-22T17:13:07;36.33;;;31.30;;
15202;SDS011;7702;51.046;5.184;2023-02-22T17:15:34;38.00;;;33.90;;
15202;SDS011;7702;51.046;5.184;2023-02-22T17:18:00;43.77;;;32.13;;
15202;SDS011;7702;51.046;5.184;2023-02-22T17:20:29;40.37;;;32.03;;
15202;SDS011;7702;51.046;5.184;2023-02-22T17:22:56;41.13;;;31.87;;
15202;SDS011;7702;51.046;5.184;2023-02-22T17:25:27;37.50;;;32.43;;
15202;SDS011;7702;51.046;5.184;2023-02-22T17:28:04;36.43;;;32.47;;
15202;SDS011;7702;51.046;5.184;2023-02-22T17:30:30;42.80;;;31.77;;
15202;SDS011;7702;51.046;5.184;2023-02-22T17:33:00;36.93;;;32.93;;
15202;SDS011;7702;51.046;5.184;2023-02-22T17:35:28;37.77;;;32.70;;
15202;SDS011;7702;51.046;5.184;2023-02-22T17:37:57;40.13;;;32.17;;
15202;SDS011;7702;51.046;5.184;2023-02-22T17:40:24;42.07;;;33.47;;
15202;SDS011;7702;51.046;5.184;2023-02-22T17:42:50;40.23;;;34.20;;
15202;SDS011;7702;51.046;5.184;2023-02-22T17:45:19;41.53;;;34.60;;
15202;SDS011;7702;51.046;5.184;2023-02-22T17:47:47;40.20;;;33.33;;
15202;SDS011;7702;51.046;5.184;2023-02-22T17:50:14;42.07;;;33.83;;
15202;SDS011;7702;51.046;5.184;2023-02-22T17:52:41;46.17;;;36.37;;
15202;SDS011;7702;51.046;5.184;2023-02-22T17:55:07;43.20;;;34.53;;
15202;SDS011;7702;51.046;5.184;2023-02-22T17:57:36;43.30;;;34.40;;
15202;SDS011;7702;51.046;5.184;2023-02-22T18:00:04;42.90;;;35.30;;